Time;durP1;ratioP1;P1;durP2;ratioP2;P2;SDS_P1;SDS_P2;PMS_P1;PMS_P2;Temp;Humidity;BMP_temperature;BMP_pressure;BME280_temperature;BME280_humidity;BME280_pressure;Samples;Min_cycle;Max_cycle;Signal;HPM_P1;HPM_P2
2022/01/18 00:00:15;;;;;;;3.83;2.10;;;;;;;2.41;64.85;94971.22;5133844;27;20054;-76
2022/01/18 00:02:41;;;;;;;3.50;2.30;;;;;;;2.44;65.55;94973.63;5116853;27;20027;-77
2022/01/18 00:05:12;;;;;;;3.47;2.38;;;;;;;2.47;65.01;94973.47;5116558;27;20111;-77
2022/01/18 00:07:37;;;;;;;2.38;1.70;;;;;;;2.45;65.61;94975.25;5117095;27;20083;-77
2022/01/18 00:10:03;;;;;;;3.78;2.13;;;;;;;2.50;65.74;94981.00;5134636;27;20047;-77
2022/01/18 00:18:05;;;;;;;2.70;1.95;;;;;;;2.45;66.00;94986.38;5133638;27;20049;-77
2022/01/18 00:20:51;;;;;;;4.25;2.42;;;;;;;2.49;65.54;94987.06;5134587;27;20481;-77
2022/01/18 00:23:17;;;;;;;4.13;2.30;;;;;;;2.43;65.39;94982.22;5133339;27;20027;-77
2022/01/18 00:25:46;;;;;;;4.07;2.70;;;;;;;2.46;65.56;94982.06;5133102;27;20030;-77
2022/01/18 00:28:12;;;;;;;3.35;2.40;;;;;;;2.50;64.95;94977.63;5133071;27;20052;-77
2022/01/18 00:33:17;;;;;;;3.55;2.33;;;;;;;2.32;64.37;94966.53;5134631;27;20041;-77
2022/01/18 00:35:44;;;;;;;3.80;2.70;;;;;;;2.41;64.13;94958.38;5133349;27;20077;-77
2022/01/18 00:38:32;;;;;;;3.42;2.33;;;;;;;2.43;63.70;94954.84;5116151;27;20418;-78
2022/01/18 00:40:57;;;;;;;3.22;2.22;;;;;;;2.36;63.62;94952.66;5118747;27;20106;-78
2022/01/18 00:43:22;;;;;;;3.92;2.75;;;;;;;2.44;63.17;94953.09;5115910;27;20471;-78
2022/01/18 00:45:48;;;;;;;4.03;2.85;;;;;;;2.44;62.69;94953.09;5132768;27;20536;-79
2022/01/18 00:48:13;;;;;;;4.03;2.63;;;;;;;2.35;62.39;94940.75;5132677;27;20027;-78
2022/01/18 00:50:39;;;;;;;3.97;2.63;;;;;;;2.38;62.10;94974.75;5132749;27;20096;-78
2022/01/18 00:53:09;;;;;;;3.45;2.50;;;;;;;2.40;61.65;94982.38;5132629;27;20475;-77
2022/01/18 00:55:46;;;;;;;4.60;2.77;;;;;;;2.31;61.50;94968.25;5116157;27;20084;-78
2022/01/18 00:58:12;;;;;;;4.80;3.47;;;;;;;2.45;61.82;95006.03;5132589;27;20031;-78
2022/01/18 01:00:38;;;;;;;4.43;3.17;;;;;;;2.41;61.50;95009.66;5132290;27;20027;-79
2022/01/18 01:03:03;;;;;;;4.38;2.88;;;;;;;2.37;62.03;94998.75;5131477;27;20455;-79
2022/01/18 01:05:28;;;;;;;4.75;3.30;;;;;;;2.40;61.43;95008.03;5132488;27;20046;-78
2022/01/18 01:07:54;;;;;;;4.35;2.92;;;;;;;2.36;61.78;95009.88;5132349;27;20038;-78
2022/01/18 01:10:19;;;;;;;4.47;2.90;;;;;;;2.35;61.93;95046.69;5132645;27;20561;-78
2022/01/18 01:12:45;;;;;;;4.80;3.38;;;;;;;2.17;62.05;95055.22;5132255;27;20481;-78
2022/01/18 01:15:13;;;;;;;4.75;3.17;;;;;;;2.14;63.16;95069.00;5115161;27;20412;-77
2022/01/18 01:17:52;;;;;;;4.53;3.53;;;;;;;2.08;64.89;95069.28;5133149;27;20084;-79
2022/01/18 01:42:42;;;;;;;5.50;2.35;;;;;;;0.75;77.62;95119.31;5133263;27;20079;-78
2022/01/18 01:45:03;;;;;;;4.43;2.70;;;;;;;0.80;77.39;95129.38;5118328;27;20035;-78
2022/01/18 01:47:35;;;;;;;5.05;3.33;;;;;;;0.80;77.32;95124.25;5132650;27;20046;-77
2022/01/18 01:50:02;;;;;;;5.88;3.80;;;;;;;0.72;75.97;95119.44;5132568;27;20050;-78
2022/01/18 01:52:28;;;;;;;5.78;3.22;;;;;;;0.73;75.20;95121.13;5114348;27;20068;-77
2022/01/18 01:54:54;;;;;;;8.48;5.05;;;;;;;0.79;75.18;95141.34;5114406;27;20066;-77
2022/01/18 01:57:19;;;;;;;6.75;4.35;;;;;;;0.84;75.15;95147.09;5131355;27;20045;-77
2022/01/18 01:59:45;;;;;;;4.97;3.55;;;;;;;0.75;75.66;95144.06;5114085;27;20035;-78
2022/01/18 02:02:10;;;;;;;5.35;3.30;;;;;;;0.75;76.12;95121.88;5114073;27;20035;-77
2022/01/18 02:04:36;;;;;;;5.38;3.60;;;;;;;0.87;75.23;95134.19;5131030;27;20042;-78
2022/01/18 02:07:01;;;;;;;4.95;3.60;;;;;;;0.96;75.34;95139.84;5114186;27;20072;-78
2022/01/18 02:09:27;;;;;;;4.68;3.53;;;;;;;0.96;74.84;95134.72;5132476;27;20476;-78
2022/01/18 02:11:55;;;;;;;4.82;3.53;;;;;;;0.88;73.92;95132.47;5114028;27;20030;-78
2022/01/18 02:14:22;;;;;;;5.88;3.90;;;;;;;0.89;73.62;95144.34;5130934;27;20054;-78
2022/01/18 02:22:15;;;;;;;5.43;3.33;;;;;;;0.84;72.21;95174.41;5131141;27;20448;-77
2022/01/18 02:24:41;;;;;;;5.13;3.35;;;;;;;0.77;70.67;95167.84;5130935;27;20031;-78
2022/01/18 02:27:06;;;;;;;6.80;2.65;;;;;;;0.70;69.95;95177.50;5113874;28;20080;-78
2022/01/18 02:29:32;;;;;;;3.67;2.60;;;;;;;0.66;68.21;95170.81;5130939;27;20035;-77
2022/01/18 02:31:57;;;;;;;3.35;2.08;;;;;;;0.66;67.45;95158.88;5130940;27;20035;-78
2022/01/18 02:34:23;;;;;;;3.85;2.00;;;;;;;0.57;63.89;95171.19;5130924;27;20031;-78
2022/01/18 02:36:50;;;;;;;3.30;1.98;;;;;;;0.53;63.09;95177.28;5113825;28;20161;-77
2022/01/18 02:39:27;;;;;;;2.85;1.70;;;;;;;0.43;61.88;95176.81;5130716;28;20110;-78
2022/01/18 02:41:58;;;;;;;3.03;1.80;;;;;;;0.38;62.09;95176.97;5130750;28;20031;-78
2022/01/18 02:44:24;;;;;;;2.47;1.85;;;;;;;0.28;62.18;95168.00;5130705;28;20034;-78
2022/01/18 02:46:49;;;;;;;4.28;1.65;;;;;;;0.18;60.11;95198.16;5113556;28;20411;-78
2022/01/18 02:49:15;;;;;;;2.10;1.40;;;;;;;0.12;60.35;95197.56;5113513;28;20051;-78
2022/01/18 02:51:40;;;;;;;2.65;1.48;;;;;;;0.12;60.39;95200.94;5130683;28;20102;-77
2022/01/18 02:54:07;;;;;;;3.17;1.58;;;;;;;0.07;57.42;95202.00;5130467;28;20039;-77
2022/01/18 02:56:36;;;;;;;2.28;1.42;;;;;;;-0.01;57.63;95200.53;5131731;27;20023;-77
2022/01/18 02:59:10;;;;;;;2.92;1.50;;;;;;;-0.08;58.81;95223.81;5113582;28;20039;-78
2022/01/18 03:04:19;;;;;;;3.63;1.50;;;;;;;-0.26;56.75;95217.59;5130686;28;20087;-78
2022/01/18 03:06:45;;;;;;;2.80;1.50;;;;;;;-0.40;56.88;95217.25;5130464;28;20445;-78
2022/01/18 03:09:10;;;;;;;2.55;1.30;;;;;;;-0.40;56.17;95235.13;5131709;27;20031;-78
2022/01/18 03:11:36;;;;;;;2.42;1.30;;;;;;;-0.43;56.70;95243.72;5130369;28;20031;-77
2022/01/18 03:14:01;;;;;;;2.72;1.30;;;;;;;-0.60;54.72;95231.50;5130294;28;20027;-77
2022/01/18 03:16:27;;;;;;;2.63;1.38;;;;;;;-0.76;56.48;95249.00;5113197;28;20030;-77
2022/01/18 03:18:52;;;;;;;2.58;1.55;;;;;;;-0.65;55.47;95243.56;5130160;28;20023;-77
2022/01/18 03:21:18;;;;;;;3.00;1.70;;;;;;;-0.77;56.86;95261.84;5113127;28;20034;-77
2022/01/18 03:23:50;;;;;;;2.50;1.60;;;;;;;-0.71;57.33;95271.84;5131569;27;20039;-77
2022/01/18 03:26:18;;;;;;;2.75;1.48;;;;;;;-0.68;57.19;95279.41;5133314;27;20031;-77
2022/01/18 03:28:43;;;;;;;2.67;1.42;;;;;;;-0.88;57.69;95263.88;5117130;27;20046;-77
2022/01/18 03:31:08;;;;;;;3.20;1.73;;;;;;;-0.80;56.63;95277.25;5116992;27;20023;-77
2022/01/18 03:33:34;;;;;;;4.20;1.70;;;;;;;-0.81;56.12;95295.97;5135271;27;20039;-77
2022/01/18 03:36:00;;;;;;;2.92;1.50;;;;;;;-0.89;56.48;95308.97;5116971;27;20027;-77
2022/01/18 03:38:32;;;;;;;3.72;1.63;;;;;;;-0.82;57.70;95318.09;5116639;27;20027;-77
2022/01/18 03:41:01;;;;;;;2.38;1.67;;;;;;;-0.78;55.08;95324.78;5135189;27;20064;-77
2022/01/18 03:43:28;;;;;;;3.20;1.60;;;;;;;-0.81;55.43;95319.75;5116549;27;20023;-77
2022/01/18 03:46:00;;;;;;;3.88;1.50;;;;;;;-0.90;55.73;95323.41;5133766;27;20123;-77
2022/01/18 03:48:37;;;;;;;1.95;1.23;;;;;;;-0.93;55.42;95325.22;5133876;27;20111;-78
2022/01/18 03:51:04;;;;;;;2.70;1.48;;;;;;;-1.13;56.04;95308.81;5133949;27;20043;-77
2022/01/18 03:53:30;;;;;;;2.33;1.20;;;;;;;-0.95;54.98;95317.66;5099609;27;20526;-78
2022/01/18 03:55:55;;;;;;;2.90;1.60;;;;;;;-0.94;54.48;95311.66;5133711;27;20015;-77
2022/01/18 03:58:21;;;;;;;2.05;1.33;;;;;;;-0.95;55.61;95319.34;5133477;27;20027;-77
2022/01/18 04:00:46;;;;;;;2.00;1.15;;;;;;;-0.99;54.00;95328.81;5133303;27;20035;-78
2022/01/18 04:03:12;;;;;;;2.10;1.23;;;;;;;-1.07;54.22;95320.53;5134946;27;20038;-78
2022/01/18 04:05:37;;;;;;;3.67;1.50;;;;;;;-1.08;54.27;95341.84;5116143;27;20095;-77
2022/01/18 04:08:03;;;;;;;3.38;1.52;;;;;;;-1.08;54.97;95349.47;5099247;27;20122;-77
2022/01/18 04:10:28;;;;;;;3.70;2.20;;;;;;;-1.09;53.51;95360.53;5133393;27;20041;-78
2022/01/18 04:12:56;;;;;;;2.58;1.40;;;;;;;-1.03;54.54;95362.94;5133346;27;20027;-78
2022/01/18 04:15:21;;;;;;;3.92;1.90;;;;;;;-1.09;53.77;95350.34;5133469;27;20523;-77
2022/01/18 04:28:43;;;;;;;4.53;2.28;;;;;;;-1.16;54.14;95422.81;5134515;27;20039;-77
2022/01/18 04:31:09;;;;;;;4.57;2.78;;;;;;;-1.16;54.38;95436.38;5132912;27;20046;-77
2022/01/18 04:33:35;;;;;;;5.00;3.30;;;;;;;-1.19;52.99;95430.56;5098613;27;20035;-78
2022/01/18 04:36:00;;;;;;;5.05;3.03;;;;;;;-1.27;54.46;95417.16;5115833;27;20015;-77
2022/01/18 04:38:26;;;;;;;8.20;4.68;;;;;;;-1.12;54.28;95434.59;5132651;27;20504;-77
2022/01/18 04:40:52;;;;;;;23.70;10.80;;;;;;;-1.16;54.03;95454.25;5098555;27;20045;-77
2022/01/18 04:43:43;;;;;;;3.50;1.98;;;;;;;-1.35;53.52;95465.81;5134055;27;20094;-77
2022/01/18 04:48:52;;;;;;;3.00;2.10;;;;;;;-1.34;55.01;95457.28;5132604;27;20050;-77
2022/01/18 04:51:17;;;;;;;8.27;4.68;;;;;;;-1.20;54.76;95469.66;5115434;27;20027;-77
2022/01/18 04:53:49;;;;;;;9.75;5.43;;;;;;;-1.31;54.49;95471.66;5115285;27;20034;-77
2022/01/18 04:56:17;;;;;;;;;;;;;;;-1.27;54.64;95486.00;5116645;27;20031;-77
2022/01/18 04:58:42;;;;;;;8.50;3.28;;;;;;;-1.27;54.41;95475.81;5132352;27;19923;-77
2022/01/18 05:01:08;;;;;;;4.55;2.90;;;;;;;-1.30;54.94;95479.28;5115186;27;20030;-76
2022/01/18 05:03:34;;;;;;;6.35;3.45;;;;;;;-1.33;54.19;95478.53;5132129;27;20027;-77
2022/01/18 05:06:03;;;;;;;9.55;4.65;;;;;;;-1.34;54.83;95475.13;5132281;27;20027;-77
2022/01/18 05:08:29;;;;;;;12.40;4.70;;;;;;;-1.39;54.95;95477.81;5132175;27;20084;-77
2022/01/18 05:10:58;;;;;;;4.28;2.00;;;;;;;-1.46;54.66;95481.38;5132174;27;20031;-77
2022/01/18 05:21:25;;;;;;;8.18;4.60;;;;;;;-1.46;54.72;95509.41;5133249;27;20512;-77
2022/01/18 05:23:51;;;;;;;7.23;4.03;;;;;;;-1.49;54.20;95518.84;5133291;27;20539;-77
2022/01/18 05:26:16;;;;;;;7.55;3.58;;;;;;;-1.50;55.47;95515.47;5131810;27;20023;-77
2022/01/18 05:28:42;;;;;;;5.38;2.53;;;;;;;-1.43;54.82;95508.50;5114627;27;20507;-77
2022/01/18 05:31:07;;;;;;;5.25;2.60;;;;;;;-1.39;55.16;95521.13;5114733;27;20031;-77
2022/01/18 05:33:33;;;;;;;10.38;5.05;;;;;;;-1.36;55.81;95532.97;5114564;27;20035;-77
2022/01/18 05:35:58;;;;;;;5.00;2.60;;;;;;;-1.34;55.11;95549.03;5131796;27;20038;-77
2022/01/18 05:38:23;;;;;;;11.13;5.88;;;;;;;-1.36;54.76;95550.81;5114406;27;20038;-77
2022/01/18 05:40:49;;;;;;;5.45;2.92;;;;;;;-1.47;54.83;95555.34;5131356;27;20031;-77
2022/01/18 05:43:16;;;;;;;5.53;3.10;;;;;;;-1.39;55.10;95559.38;5114494;27;20447;-77
2022/01/18 05:45:41;;;;;;;6.93;3.30;;;;;;;-1.37;55.25;95570.34;5131451;27;20027;-77
2022/01/18 05:48:06;;;;;;;6.80;3.75;;;;;;;-1.29;54.42;95579.53;5113843;28;20547;-77
2022/01/18 05:50:32;;;;;;;4.20;2.40;;;;;;;-1.31;54.59;95576.16;5131404;27;20055;-77
2022/01/18 05:52:57;;;;;;;5.28;2.80;;;;;;;-1.42;54.79;95546.69;5132531;27;20027;-77
2022/01/18 05:55:23;;;;;;;9.45;4.20;;;;;;;-1.39;54.39;95564.47;5132965;27;20031;-77
2022/01/18 05:57:48;;;;;;;4.60;2.53;;;;;;;-1.45;54.40;95572.28;5131221;27;20031;-77
2022/01/18 06:00:20;;;;;;;4.10;2.33;;;;;;;-1.38;54.63;95573.78;5114163;27;20039;-77
2022/01/18 06:08:04;;;;;;;4.25;2.47;;;;;;;-1.36;54.51;95573.75;5131383;27;20030;-77
2022/01/18 06:10:30;;;;;;;7.70;2.78;;;;;;;-1.54;54.70;95562.28;5131198;27;20032;-77
2022/01/18 06:12:55;;;;;;;6.32;3.25;;;;;;;-1.48;55.84;95561.28;5131049;27;20038;-77
2022/01/18 06:15:21;;;;;;;4.60;2.72;;;;;;;-1.43;55.34;95580.69;5131101;27;20040;-77
2022/01/18 06:17:46;;;;;;;5.45;3.08;;;;;;;-1.46;55.02;95575.66;5132110;27;20073;-76
2022/01/18 06:20:12;;;;;;;5.88;2.90;;;;;;;-1.48;54.86;95577.41;5132377;27;20039;-77
2022/01/18 06:22:37;;;;;;;4.55;2.53;;;;;;;-1.40;55.24;95580.63;5096680;27;20031;-77
2022/01/18 06:25:04;;;;;;;4.13;2.00;;;;;;;-1.45;54.97;95592.66;5130986;27;20552;-77
2022/01/18 06:27:29;;;;;;;3.97;2.10;;;;;;;-1.41;54.54;95591.69;5130711;27;20059;-77
2022/01/18 06:29:55;;;;;;;3.90;2.50;;;;;;;-1.45;54.95;95582.47;5130831;27;20520;-77
2022/01/18 06:32:21;;;;;;;4.43;2.85;;;;;;;-1.37;54.82;95593.28;5131998;27;20485;-77
2022/01/18 06:34:46;;;;;;;3.70;2.58;;;;;;;-1.49;55.15;95585.94;5130788;27;20023;-77
2022/01/18 06:37:12;;;;;;;3.97;2.30;;;;;;;-1.65;55.45;95605.00;5132004;27;20019;-77
2022/01/18 06:39:37;;;;;;;4.38;2.38;;;;;;;-1.73;56.11;95587.34;5113613;28;20035;-77
2022/01/18 06:42:03;;;;;;;4.32;2.60;;;;;;;-1.54;55.81;95592.03;5113594;28;20126;-75
2022/01/18 06:44:29;;;;;;;5.80;3.15;;;;;;;-1.51;55.83;95597.88;5130575;27;20042;-77
2022/01/18 06:46:54;;;;;;;5.57;3.72;;;;;;;-1.49;55.52;95601.22;5130774;28;20431;-77
2022/01/18 06:49:20;;;;;;;5.85;2.50;;;;;;;-1.42;55.61;95595.13;5130300;28;20563;-77
2022/01/18 06:51:45;;;;;;;4.45;3.10;;;;;;;-1.42;55.15;95587.47;5113410;28;20079;-77
2022/01/18 06:54:13;;;;;;;5.13;2.67;;;;;;;-1.37;55.34;95595.84;5113555;28;20067;-77
2022/01/18 06:56:42;;;;;;;12.85;4.95;;;;;;;-1.40;55.49;95603.56;5131738;27;20561;-77
2022/01/18 06:59:08;;;;;;;8.10;4.25;;;;;;;-1.38;55.41;95609.47;5131789;27;20031;-77
2022/01/18 07:01:33;;;;;;;6.28;3.10;;;;;;;-1.39;54.86;95625.66;5115766;27;20027;-77
2022/01/18 07:03:59;;;;;;;21.70;10.45;;;;;;;-1.30;55.62;95626.31;5134454;27;20031;-77
2022/01/18 07:06:24;;;;;;;42.33;11.80;;;;;;;-1.33;54.92;95637.41;5117433;27;20027;-77
2022/01/18 07:08:50;;;;;;;12.90;5.28;;;;;;;-1.40;55.09;95636.69;5134442;27;20032;-77
2022/01/18 07:11:16;;;;;;;6.57;3.20;;;;;;;-1.41;55.30;95660.53;5135755;27;20058;-77
2022/01/18 07:13:42;;;;;;;5.15;3.45;;;;;;;-1.54;55.05;95648.09;5134370;27;20084;-77
2022/01/18 07:16:07;;;;;;;7.50;4.72;;;;;;;-1.47;55.34;95642.81;5117298;27;20027;-77
2022/01/18 07:18:33;;;;;;;11.45;5.63;;;;;;;-1.36;55.54;95640.88;5117052;27;20054;-77
2022/01/18 07:20:58;;;;;;;9.38;4.50;;;;;;;-1.27;55.67;95664.47;5134319;27;20060;-77
2022/01/18 07:23:24;;;;;;;9.35;5.30;;;;;;;-1.30;54.80;95672.19;5134259;27;20054;-77
2022/01/18 07:25:49;;;;;;;7.93;4.00;;;;;;;-1.31;55.46;95660.31;5135673;27;20034;-77
2022/01/18 07:28:17;;;;;;;5.88;3.15;;;;;;;-1.41;55.27;95649.50;5117004;27;20091;-78
2022/01/18 07:30:42;;;;;;;7.32;4.68;;;;;;;-1.39;55.41;95648.59;5134219;27;20035;-77
2022/01/18 07:33:08;;;;;;;7.78;3.78;;;;;;;-1.27;55.49;95665.31;5134146;27;20046;-77
2022/01/18 07:35:34;;;;;;;4.85;2.60;;;;;;;-1.29;54.90;95654.28;5133940;27;20039;-77
2022/01/18 07:38:01;;;;;;;5.20;2.70;;;;;;;-1.25;55.17;95667.84;5133947;27;20034;-77
2022/01/18 07:40:27;;;;;;;6.57;2.90;;;;;;;-1.33;55.65;95673.09;5116955;27;20453;-77
2022/01/18 07:42:53;;;;;;;3.08;2.13;;;;;;;-1.33;54.37;95669.72;5133961;27;20034;-77
2022/01/18 07:45:19;;;;;;;4.22;2.40;;;;;;;-1.24;54.56;95672.88;5134005;27;20030;-77
2022/01/18 07:47:44;;;;;;;4.95;2.80;;;;;;;-1.14;54.82;95684.56;5133830;27;20031;-77
2022/01/18 07:50:10;;;;;;;4.28;3.00;;;;;;;-1.15;54.58;95677.75;5133708;27;20059;-77
2022/01/18 07:52:36;;;;;;;4.75;2.33;;;;;;;-0.95;53.96;95684.97;5116509;27;20564;-78
2022/01/18 07:55:03;;;;;;;3.80;2.33;;;;;;;-0.55;53.30;95694.19;5116436;27;20032;-78
2022/01/18 07:57:29;;;;;;;5.35;2.53;;;;;;;-0.13;52.02;95670.94;5099531;27;20049;-78
2022/01/18 07:59:54;;;;;;;4.75;2.40;;;;;;;-0.03;51.07;95680.03;5135066;27;20507;-78
2022/01/18 08:02:20;;;;;;;6.55;2.60;;;;;;;0.09;52.07;95703.56;5133564;27;20404;-78
2022/01/18 08:04:45;;;;;;;8.80;5.38;;;;;;;0.13;51.25;95694.94;5134994;27;20457;-77
2022/01/18 08:07:10;;;;;;;4.80;3.05;;;;;;;0.10;51.06;95702.69;5116351;27;20046;-78
2022/01/18 08:09:36;;;;;;;24.52;9.10;;;;;;;0.15;51.57;95695.72;5134746;27;20035;-78
2022/01/18 08:12:03;;;;;;;7.82;4.40;;;;;;;0.21;51.69;95708.31;5132847;27;20508;-77
2022/01/18 08:14:31;;;;;;;8.05;4.18;;;;;;;0.18;51.97;95687.97;5133258;27;20027;-78
2022/01/18 08:17:00;;;;;;;7.35;4.07;;;;;;;0.39;50.92;95715.47;5133135;27;20526;-77
2022/01/18 08:19:27;;;;;;;9.30;4.90;;;;;;;0.42;51.90;95720.50;5116258;27;20035;-77
2022/01/18 08:21:53;;;;;;;6.20;3.17;;;;;;;0.46;50.66;95731.47;5116127;27;20114;-76
2022/01/18 08:24:18;;;;;;;5.18;3.08;;;;;;;0.40;51.36;95734.22;5133201;27;20477;-78
2022/01/18 08:26:43;;;;;;;6.10;3.67;;;;;;;0.30;51.43;95735.34;5098883;27;20540;-78
2022/01/18 08:29:12;;;;;;;4.53;2.78;;;;;;;0.31;52.38;95740.44;5134308;27;20445;-77
2022/01/18 08:31:37;;;;;;;5.85;3.83;;;;;;;0.19;51.35;95743.31;5116086;27;20411;-77
2022/01/18 08:34:02;;;;;;;4.45;2.67;;;;;;;0.09;50.35;95719.72;5132866;27;20027;-78
2022/01/18 08:36:28;;;;;;;7.25;2.80;;;;;;;0.31;51.18;95745.53;5134025;27;20030;-77
2022/01/18 08:38:53;;;;;;;5.00;2.72;;;;;;;0.32;51.09;95729.31;5132717;27;20027;-77
2022/01/18 08:41:19;;;;;;;5.43;3.15;;;;;;;0.32;51.40;95748.94;5115663;27;20466;-77
2022/01/18 08:43:44;;;;;;;4.68;2.67;;;;;;;0.49;52.51;95751.84;5132603;27;20116;-78
2022/01/18 08:46:10;;;;;;;4.93;3.25;;;;;;;0.60;50.93;95751.53;5133950;27;20072;-78
2022/01/18 08:48:36;;;;;;;6.43;4.47;;;;;;;0.68;50.73;95759.00;5132560;27;20473;-77
2022/01/18 08:51:02;;;;;;;3.83;2.20;;;;;;;0.64;49.49;95746.28;5132728;27;20571;-78
2022/01/18 08:53:27;;;;;;;9.90;5.47;;;;;;;0.63;50.29;95743.78;5132550;27;20023;-77
2022/01/18 08:55:53;;;;;;;6.38;4.13;;;;;;;0.68;49.86;95731.69;5132519;27;20038;-78
2022/01/18 08:58:20;;;;;;;8.98;3.15;;;;;;;0.88;49.76;95756.69;5132434;27;20079;-78
2022/01/18 09:00:46;;;;;;;6.15;3.63;;;;;;;0.98;50.78;95760.63;5132409;27;20027;-78
2022/01/18 09:03:11;;;;;;;5.88;3.55;;;;;;;1.07;50.00;95751.84;5115438;27;20023;-77
2022/01/18 09:05:38;;;;;;;5.50;3.70;;;;;;;1.09;48.65;95755.19;5132334;27;20369;-79
2022/01/18 09:08:06;;;;;;;6.95;4.07;;;;;;;1.15;48.86;95755.00;5115535;27;20114;-77
2022/01/18 09:10:32;;;;;;;5.90;3.75;;;;;;;1.31;49.22;95760.50;5098962;27;20039;-78
2022/01/18 09:12:58;;;;;;;9.13;5.95;;;;;;;1.42;49.11;95757.56;5132238;27;20027;-77
2022/01/18 09:15:25;;;;;;;18.33;12.00;;;;;;;1.49;48.86;95776.97;5115011;27;20038;-78
2022/01/18 09:17:50;;;;;;;18.08;9.23;;;;;;;1.36;47.52;95760.31;5132049;27;20019;-77
2022/01/18 09:20:16;;;;;;;20.77;12.00;;;;;;;1.28;47.82;95758.00;5131998;27;20035;-78
2022/01/18 09:22:43;;;;;;;37.03;20.67;;;;;;;1.37;47.82;95744.09;5114380;27;20031;-75
2022/01/18 09:25:15;;;;;;;17.10;10.23;;;;;;;1.35;48.26;95751.81;5131517;27;20119;-76
2022/01/18 09:27:40;;;;;;;35.58;16.38;;;;;;;1.37;46.88;95767.16;5115390;27;20057;-76
2022/01/18 09:30:07;;;;;;;19.38;11.93;;;;;;;1.46;47.04;95762.56;5133336;27;20039;-77
2022/01/18 09:32:32;;;;;;;17.98;12.07;;;;;;;1.55;48.85;95758.84;5114536;27;20636;-76
2022/01/18 09:34:57;;;;;;;6.30;3.83;;;;;;;1.70;47.27;95755.81;5131779;27;20051;-77
2022/01/18 09:37:23;;;;;;;16.15;8.93;;;;;;;1.72;47.08;95758.28;5131633;27;20072;-76
2022/01/18 09:39:48;;;;;;;25.50;13.43;;;;;;;1.71;46.93;95742.09;5131629;27;20031;-77
2022/01/18 09:42:14;;;;;;;6.03;3.80;;;;;;;1.58;46.59;95756.19;5131658;27;20050;-77
2022/01/18 09:44:40;;;;;;;11.30;7.13;;;;;;;1.63;47.41;95743.25;5097393;27;20031;-76
2022/01/18 09:47:05;;;;;;;9.10;4.68;;;;;;;1.54;47.52;95729.00;5114386;27;20031;-76
2022/01/18 09:49:34;;;;;;;9.35;7.60;;;;;;;1.60;47.72;95733.94;5131274;27;20047;-77
2022/01/18 09:52:00;;;;;;;7.65;5.45;;;;;;;1.69;47.86;95732.78;5131421;27;20087;-77
2022/01/18 09:54:25;;;;;;;5.20;3.53;;;;;;;1.72;47.67;95707.88;5114268;27;20031;-77
2022/01/18 09:56:51;;;;;;;14.45;8.75;;;;;;;1.70;47.81;95719.94;5114289;27;20030;-77
2022/01/18 09:59:16;;;;;;;10.88;6.95;;;;;;;1.70;47.88;95725.06;5131172;27;20039;-76
2022/01/18 10:01:42;;;;;;;24.48;14.60;;;;;;;1.67;47.61;95694.44;5114113;27;20068;-77
2022/01/18 10:04:18;;;;;;;45.83;27.98;;;;;;;1.95;47.97;95730.19;5131015;27;20028;-77
2022/01/18 10:06:49;;;;;;;15.77;8.93;;;;;;;2.00;47.39;95718.03;5131267;27;20396;-77
2022/01/18 10:09:16;;;;;;;29.87;17.63;;;;;;;1.98;47.27;95713.88;5114339;27;20062;-76
2022/01/18 10:12:11;;;;;;;24.00;16.52;;;;;;;1.86;47.06;95722.78;5114159;27;20274;-76
2022/01/18 10:14:41;;;;;;;6.00;4.30;;;;;;;1.86;47.55;95722.78;5115490;27;20503;-77
2022/01/18 10:17:07;;;;;;;7.80;5.55;;;;;;;1.96;48.61;95731.03;5096984;27;20023;-76
2022/01/18 10:19:47;;;;;;;7.78;4.03;;;;;;;1.99;48.00;95720.66;5130851;27;20023;-77
2022/01/18 10:22:18;;;;;;;6.75;4.38;;;;;;;1.95;48.30;95742.13;5130933;27;20079;-76
2022/01/18 10:24:44;;;;;;;10.98;5.82;;;;;;;2.07;48.33;95736.59;5130756;27;20049;-77
2022/01/18 10:27:10;;;;;;;5.93;3.60;;;;;;;2.07;46.48;95733.22;5130859;27;20037;-76
2022/01/18 10:29:40;;;;;;;8.82;4.43;;;;;;;1.87;47.38;95731.34;5113598;27;20039;-77
2022/01/18 10:37:18;;;;;;;9.25;5.22;;;;;;;1.97;47.61;95725.00;5114631;27;20016;-77
2022/01/18 10:39:47;;;;;;;10.40;6.13;;;;;;;1.95;46.90;95719.06;5130561;27;20035;-76
2022/01/18 10:42:19;;;;;;;28.25;16.75;;;;;;;1.88;47.51;95713.34;5113773;28;20059;-77
2022/01/18 10:44:46;;;;;;;12.15;5.60;;;;;;;1.87;47.32;95710.84;5132081;27;20067;-77
2022/01/18 10:47:12;;;;;;;14.18;10.82;;;;;;;1.80;47.04;95715.31;5131808;27;20521;-77
2022/01/18 10:49:44;;;;;;;8.52;4.78;;;;;;;1.76;46.72;95706.09;5096285;28;20079;-77
2022/01/18 10:52:20;;;;;;;14.52;9.98;;;;;;;1.93;47.32;95702.94;5113859;28;20027;-77
2022/01/18 10:54:54;;;;;;;15.77;13.30;;;;;;;2.02;47.18;95697.47;5130446;28;20061;-76
2022/01/18 10:57:28;;;;;;;8.32;4.50;;;;;;;2.18;47.13;95708.03;5131795;27;20019;-77
2022/01/18 10:59:58;;;;;;;5.10;2.78;;;;;;;2.03;45.19;95722.22;5130555;28;20088;-77
2022/01/18 11:02:23;;;;;;;7.45;3.53;;;;;;;1.97;45.76;95712.19;5130444;28;20033;-77
2022/01/18 11:04:48;;;;;;;8.30;5.20;;;;;;;2.06;46.24;95703.31;5113462;28;20412;-76
2022/01/18 11:07:16;;;;;;;6.72;5.10;;;;;;;1.96;46.39;95707.97;5131680;27;20039;-77
2022/01/18 11:09:41;;;;;;;6.50;3.58;;;;;;;1.97;45.64;95705.31;5113271;28;20043;-77
2022/01/18 11:12:07;;;;;;;5.50;4.72;;;;;;;1.95;45.63;95683.19;5113376;28;20503;-77
2022/01/18 11:14:44;;;;;;;5.18;3.13;;;;;;;1.92;45.17;95691.84;5130330;28;20517;-77
2022/01/18 11:17:21;;;;;;;14.20;8.60;;;;;;;1.96;46.52;95708.78;5131616;27;20027;-77
2022/01/18 11:19:48;;;;;;;15.73;8.85;;;;;;;1.84;44.73;95710.91;5114793;28;20039;-77
2022/01/18 11:22:13;;;;;;;20.08;12.20;;;;;;;1.88;45.85;95702.25;5130260;28;20510;-77
2022/01/18 11:24:43;;;;;;;15.23;10.23;;;;;;;1.99;46.26;95700.16;5113082;28;20023;-77
2022/01/18 11:27:13;;;;;;;5.57;2.65;;;;;;;1.95;45.07;95725.06;5113265;28;20123;-76
2022/01/18 11:29:40;;;;;;;7.57;4.45;;;;;;;1.86;44.71;95712.53;5113622;28;20117;-76
2022/01/18 11:32:06;;;;;;;6.95;5.35;;;;;;;1.94;45.60;95709.72;5131362;27;20488;-77
2022/01/18 11:34:49;;;;;;;3.97;2.50;;;;;;;1.85;45.48;95705.75;5130145;28;20156;-76
2022/01/18 11:37:21;;;;;;;8.98;7.07;;;;;;;1.87;45.71;95709.13;5131401;27;20075;-76
2022/01/18 11:39:46;;;;;;;8.05;2.42;;;;;;;1.58;45.78;95709.25;5130044;27;20027;-76
2022/01/18 11:42:13;;;;;;;5.15;2.40;;;;;;;1.66;45.46;95713.22;5130108;28;20041;-76
2022/01/18 11:44:39;;;;;;;4.93;3.03;;;;;;;1.75;45.27;95700.09;5131488;27;20027;-76
2022/01/18 11:47:05;;;;;;;7.85;5.40;;;;;;;1.88;45.45;95718.47;5131636;27;20031;-76
2022/01/18 11:49:33;;;;;;;4.88;3.67;;;;;;;1.93;44.89;95697.81;5133601;27;20052;-76
2022/01/18 11:52:05;;;;;;;9.10;4.55;;;;;;;1.73;45.61;95706.19;5134908;27;20027;-76
2022/01/18 11:54:39;;;;;;;6.35;4.15;;;;;;;1.64;45.59;95694.50;5116838;27;20034;-76
2022/01/18 11:57:23;;;;;;;6.47;4.63;;;;;;;1.74;46.06;95688.19;5134949;27;20076;-76
2022/01/18 11:59:52;;;;;;;6.82;4.15;;;;;;;1.83;45.15;95699.84;5134943;27;20114;-76
2022/01/18 12:02:28;;;;;;;10.68;7.22;;;;;;;1.76;45.34;95694.09;5134659;27;20503;-76
2022/01/18 12:05:04;;;;;;;6.72;4.95;;;;;;;1.77;45.28;95695.75;5134591;27;20054;-76
2022/01/18 12:07:39;;;;;;;15.40;8.55;;;;;;;1.78;45.42;95687.22;5133321;27;20027;-76
2022/01/18 12:10:19;;;;;;;17.83;8.80;;;;;;;1.84;44.50;95683.59;5134996;27;20500;-76
2022/01/18 12:12:48;;;;;;;6.25;3.80;;;;;;;1.82;45.21;95674.28;5134619;27;20031;-76
2022/01/18 12:15:23;;;;;;;8.68;4.00;;;;;;;1.88;44.25;95674.91;5133329;27;20125;-76
2022/01/18 12:17:52;;;;;;;7.32;3.90;;;;;;;1.87;44.89;95665.56;5134509;27;20023;-77
2022/01/18 12:20:46;;;;;;;9.00;4.50;;;;;;;1.97;44.63;95666.03;5133283;27;20480;-76
2022/01/18 12:23:18;;;;;;;5.43;2.60;;;;;;;1.83;44.83;95669.09;5134285;27;20535;-75
2022/01/18 12:25:59;;;;;;;5.80;3.70;;;;;;;1.82;45.65;95658.91;5133059;27;20113;-76
2022/01/18 12:34:31;;;;;;;7.43;3.83;;;;;;;1.77;44.08;95664.19;5134508;27;20041;-76
2022/01/18 12:37:11;;;;;;;9.23;4.05;;;;;;;1.76;44.11;95678.72;5134128;27;20031;-76
2022/01/18 12:40:05;;;;;;;4.45;2.50;;;;;;;1.69;43.77;95687.50;5132758;27;20039;-76
2022/01/18 12:45:17;;;;;;;15.80;9.25;;;;;;;1.77;44.17;95684.69;5134351;27;20399;-76
2022/01/18 12:47:48;;;;;;;6.07;3.97;;;;;;;1.80;44.23;95679.44;5115598;27;20060;-76
2022/01/18 12:50:15;;;;;;;12.33;7.43;;;;;;;1.76;43.64;95671.03;5116147;27;20432;-76
2022/01/18 12:52:51;;;;;;;5.55;3.20;;;;;;;1.90;44.20;95673.13;5133647;27;20034;-76
2022/01/18 12:55:43;;;;;;;4.35;3.05;;;;;;;1.92;43.54;95689.28;5132658;27;20058;-76
2022/01/18 12:58:09;;;;;;;9.30;4.97;;;;;;;1.92;43.62;95683.31;5133533;27;20110;-76